Time;durP1;ratioP1;P1;durP2;ratioP2;P2;SDS_P1;SDS_P2;PMS_P1;PMS_P2;Temp;Humidity;BMP_temperature;BMP_pressure;BME280_temperature;BME280_humidity;BME280_pressure;Samples;Min_cycle;Max_cycle;Signal;HPM_P1;HPM_P2
2022/03/26 00:00:16;;;;;;;20.60;15.80;;;;;;-10008.22;;;;106099;1287;65637;-34
2022/03/26 00:03:04;;;;;;;24.10;16.80;;;;;;-10131.92;;;;106153;1287;65723;-30
2022/03/26 00:05:31;;;;;;;19.20;15.60;;;;;;-10008.22;;;;105943;1287;66727;-28
2022/03/26 00:07:59;;;;;;;20.60;15.70;;;;;;-10131.92;;;;105790;1288;65815;-30
2022/03/26 00:10:26;;;;;;;21.00;15.60;;;;;;-10008.22;;;;105857;1288;65630;-30
2022/03/26 00:12:56;;;;;;;21.90;15.70;;;;;;-10379.31;;;;105831;1287;65835;-36
2022/03/26 00:15:26;;;;;;;21.40;16.10;;;;;;-10131.92;;;;106128;1287;65746;-32
2022/03/26 00:17:53;;;;;;;19.50;15.20;;;;;;-10131.92;;;;106118;1287;66970;-29
2022/03/26 00:20:21;;;;;;;22.20;15.70;;;;;;-10008.22;;;;106059;1287;65585;-29
2022/03/26 00:22:48;;;;;;;21.00;15.40;;;;;;-10131.92;;;;105902;1288;65619;-29
2022/03/26 00:25:17;;;;;;;23.80;16.00;;;;;;-10131.92;;;;106075;1287;65749;-28
2022/03/26 00:27:44;;;;;;;20.70;15.80;;;;;;-10503.01;;;;105899;1288;65603;-33
2022/03/26 00:30:12;;;;;;;20.50;15.30;;;;;;-10131.92;;;;105899;1288;65739;-33
2022/03/26 00:32:39;;;;;;;20.50;15.40;;;;;;-10255.62;;;;105928;1288;66095;-32
2022/03/26 00:35:09;;;;;;;19.50;16.00;;;;;;-10131.92;;;;106042;1287;65731;-33
2022/03/26 00:37:38;;;;;;;19.70;15.70;;;;;;-10255.62;;;;106085;1286;65613;-33
2022/03/26 00:40:08;;;;;;;20.60;16.00;;;;;;-10255.62;;;;106096;1287;65562;-31
2022/03/26 00:42:35;;;;;;;21.30;15.70;;;;;;-10008.22;;;;105824;1287;65806;-28
2022/03/26 00:45:04;;;;;;;20.00;15.10;;;;;;-10255.62;;;;106069;1287;65757;-29
2022/03/26 00:47:31;;;;;;;18.30;15.50;;;;;;-10255.62;;;;105876;1288;66892;-33
2022/03/26 00:49:59;;;;;;;21.20;15.20;;;;;;-10131.92;;;;105845;1288;65781;-38
2022/03/26 00:52:27;;;;;;;20.50;16.10;;;;;;-10255.62;;;;105864;1287;65679;-33
2022/03/26 00:54:55;;;;;;;18.80;15.70;;;;;;-10255.62;;;;106077;1287;65614;-33
2022/03/26 00:57:22;;;;;;;18.20;15.30;;;;;;-10255.62;;;;106061;1287;66255;-28
2022/03/26 00:59:50;;;;;;;20.20;15.60;;;;;;-10255.62;;;;105836;1288;65807;-28
2022/03/26 01:02:17;;;;;;;21.10;16.20;;;;;;-10131.92;;;;105844;1287;65569;-27
2022/03/26 01:04:44;;;;;;;19.80;15.90;;;;;;-10255.62;;;;106089;1287;65567;-28
2022/03/26 01:07:11;;;;;;;19.90;15.70;;;;;;-10008.22;;;;105867;1287;65875;-32
2022/03/26 01:09:39;;;;;;;21.50;15.50;;;;;;-10131.92;;;;105825;1288;66034;-29
2022/03/26 01:12:07;;;;;;;20.80;15.60;;;;;;-10131.92;;;;106068;1287;65708;-33
2022/03/26 01:14:34;;;;;;;19.50;15.50;;;;;;-10008.22;;;;106068;1287;66329;-41
2022/03/26 01:17:02;;;;;;;21.10;16.20;;;;;;-10255.62;;;;105820;1287;65808;-32
2022/03/26 01:19:29;;;;;;;18.00;14.80;;;;;;-10255.62;;;;105768;1288;65768;-32
2022/03/26 01:21:56;;;;;;;18.50;15.80;;;;;;-10008.22;;;;106079;1287;65720;-29
2022/03/26 01:24:23;;;;;;;21.40;16.20;;;;;;-10255.62;;;;106066;1287;65586;-29
2022/03/26 01:26:51;;;;;;;20.20;15.10;;;;;;-10131.92;;;;106065;1287;65684;-28
2022/03/26 01:29:19;;;;;;;18.50;15.70;;;;;;-10131.92;;;;106110;1287;65709;-27
2022/03/26 01:31:46;;;;;;;19.50;15.30;;;;;;-10379.31;;;;105885;1288;65747;-28
2022/03/26 01:34:13;;;;;;;18.60;15.90;;;;;;-10008.22;;;;106056;1287;65590;-29
2022/03/26 01:36:41;;;;;;;19.50;14.90;;;;;;-10008.22;;;;105796;1289;65700;-34
2022/03/26 01:39:09;;;;;;;21.10;15.50;;;;;;-10131.92;;;;106101;1287;65605;-33
2022/03/26 01:41:37;;;;;;;19.10;14.90;;;;;;-10255.62;;;;105856;1288;64713;-28
2022/03/26 01:44:06;;;;;;;18.40;15.00;;;;;;-10255.62;;;;105914;1288;65742;-29
2022/03/26 01:46:45;;;;;;;19.30;15.00;;;;;;-10255.62;;;;105850;1288;65708;-36
2022/03/26 01:49:13;;;;;;;19.30;15.80;;;;;;-10131.92;;;;106091;1287;65709;-37
2022/03/26 01:51:40;;;;;;;20.60;15.20;;;;;;-10255.62;;;;106072;1287;65584;-34
2022/03/26 01:54:08;;;;;;;19.90;15.20;;;;;;-10255.62;;;;106118;1287;65937;-32
2022/03/26 01:56:36;;;;;;;20.60;15.90;;;;;;-10131.92;;;;106109;1287;65703;-32
2022/03/26 01:59:05;;;;;;;22.40;16.70;;;;;;-10255.62;;;;106113;1287;65724;-29
2022/03/26 02:01:34;;;;;;;20.50;16.90;;;;;;-10131.92;;;;106115;1287;65821;-33
2022/03/26 02:04:02;;;;;;;18.80;15.40;;;;;;-10379.31;;;;106099;1287;65738;-35
2022/03/26 02:06:34;;;;;;;19.90;15.40;;;;;;-10255.62;;;;106134;1287;65714;-33
2022/03/26 02:09:03;;;;;;;19.60;15.50;;;;;;-10503.01;;;;106112;1287;65668;-33
2022/03/26 02:11:36;;;;;;;19.10;14.70;;;;;;-10255.62;;;;106095;1287;65728;-29
2022/03/26 02:14:04;;;;;;;20.40;15.60;;;;;;-10131.92;;;;106100;1287;65697;-28
2022/03/26 02:16:32;;;;;;;18.80;15.30;;;;;;-10131.92;;;;106119;1287;64537;-28
2022/03/26 02:19:01;;;;;;;20.20;16.30;;;;;;-10008.22;;;;106082;1287;65607;-31
2022/03/26 02:21:28;;;;;;;19.70;16.10;;;;;;-10131.92;;;;106121;1287;66834;-34
2022/03/26 02:23:55;;;;;;;20.10;14.80;;;;;;-10131.92;;;;106090;1287;65585;-34
2022/03/26 02:26:26;;;;;;;19.20;14.30;;;;;;-10131.92;;;;106099;1287;65617;-29
2022/03/26 02:28:55;;;;;;;19.40;15.80;;;;;;-10131.92;;;;106074;1287;65586;-28
2022/03/26 02:31:23;;;;;;;17.40;14.80;;;;;;-10379.31;;;;105859;1288;65603;-34
2022/03/26 02:33:50;;;;;;;18.90;14.80;;;;;;-10131.92;;;;106109;1287;65708;-34
2022/03/26 02:36:17;;;;;;;20.10;15.10;;;;;;-10131.92;;;;106088;1287;65610;-36
2022/03/26 02:38:45;;;;;;;18.10;15.00;;;;;;-10008.22;;;;106078;1287;65608;-33
2022/03/26 02:41:12;;;;;;;18.10;14.30;;;;;;-10131.92;;;;105880;1288;65716;-29
2022/03/26 02:43:39;;;;;;;20.70;15.80;;;;;;-10131.92;;;;106079;1287;65739;-38
2022/03/26 02:46:07;;;;;;;19.60;15.10;;;;;;-10131.92;;;;106120;1287;65741;-34
2022/03/26 02:48:35;;;;;;;18.10;14.70;;;;;;-10255.62;;;;106100;1287;65715;-35
2022/03/26 02:51:02;;;;;;;18.80;14.60;;;;;;-10503.01;;;;106079;1287;65696;-34
2022/03/26 02:53:29;;;;;;;17.40;14.00;;;;;;-10131.92;;;;105746;1288;65796;-34
2022/03/26 02:55:57;;;;;;;20.20;15.40;;;;;;-10131.92;;;;106115;1287;65837;-34
2022/03/26 02:58:24;;;;;;;18.40;14.50;;;;;;-10131.92;;;;106089;1287;65841;-33
2022/03/26 03:00:52;;;;;;;19.20;15.00;;;;;;-10255.62;;;;106091;1287;65726;-28
2022/03/26 03:03:19;;;;;;;19.00;14.70;;;;;;-10131.92;;;;106111;1287;65588;-29
2022/03/26 03:05:46;;;;;;;18.00;14.60;;;;;;-10008.22;;;;105894;1288;65633;-34
2022/03/26 03:08:15;;;;;;;17.80;14.80;;;;;;-10255.62;;;;105958;1287;65670;-34
2022/03/26 03:10:43;;;;;;;18.50;15.00;;;;;;-10008.22;;;;105912;1287;65659;-38
2022/03/26 03:13:11;;;;;;;18.90;14.50;;;;;;-10255.62;;;;106120;1287;65717;-34
2022/03/26 03:15:39;;;;;;;18.20;14.20;;;;;;-10131.92;;;;106081;1287;65660;-32
2022/03/26 03:18:06;;;;;;;18.30;13.70;;;;;;-10131.92;;;;105875;1288;65711;-34
2022/03/26 03:20:33;;;;;;;17.70;14.50;;;;;;-10131.92;;;;105829;1288;65618;-29
2022/03/26 03:23:00;;;;;;;18.00;14.00;;;;;;-10131.92;;;;106113;1287;65629;-29
2022/03/26 03:25:29;;;;;;;18.50;14.70;;;;;;-10008.22;;;;105740;1287;65605;-29
2022/03/26 03:27:57;;;;;;;18.80;14.00;;;;;;-10131.92;;;;105704;1288;65698;-28
2022/03/26 03:30:26;;;;;;;19.50;15.10;;;;;;-10255.62;;;;105949;1288;65844;-28
2022/03/26 03:32:54;;;;;;;19.40;13.60;;;;;;-10131.92;;;;106137;1287;65980;-33
2022/03/26 03:35:22;;;;;;;19.40;14.30;;;;;;-10131.92;;;;105896;1287;65943;-33
2022/03/26 03:37:50;;;;;;;18.40;14.60;;;;;;-10255.62;;;;105838;1288;65600;-28
2022/03/26 03:40:18;;;;;;;19.00;15.20;;;;;;-10131.92;;;;106077;1286;65733;-27
2022/03/26 03:42:45;;;;;;;17.60;14.00;;;;;;-10255.62;;;;106099;1287;65598;-32
2022/03/26 03:45:12;;;;;;;18.00;14.20;;;;;;-10008.22;;;;106111;1288;66259;-33
2022/03/26 03:47:40;;;;;;;18.40;15.00;;;;;;-10131.92;;;;106118;1287;65690;-32
2022/03/26 03:50:08;;;;;;;17.60;14.50;;;;;;-10503.01;;;;106072;1287;65586;-33
2022/03/26 03:52:36;;;;;;;19.10;14.50;;;;;;-10131.92;;;;106128;1287;65668;-28
2022/03/26 03:55:05;;;;;;;17.80;15.20;;;;;;-10131.92;;;;106075;1287;65959;-28
2022/03/26 03:57:33;;;;;;;18.10;13.80;;;;;;-10131.92;;;;106116;1287;65859;-33
2022/03/26 04:00:01;;;;;;;16.90;13.70;;;;;;-10255.62;;;;106079;1286;65602;-33
2022/03/26 04:02:29;;;;;;;17.40;14.80;;;;;;-10131.92;;;;106126;1287;65635;-33
2022/03/26 04:04:56;;;;;;;19.10;14.30;;;;;;-10008.22;;;;106093;1287;65744;-33
2022/03/26 04:07:23;;;;;;;17.10;13.50;;;;;;-10255.62;;;;105833;1288;65659;-29
2022/03/26 04:09:51;;;;;;;16.70;13.90;;;;;;-10255.62;;;;106078;1287;65706;-29
2022/03/26 04:12:18;;;;;;;17.80;13.40;;;;;;-10131.92;;;;106099;1287;66461;-28
2022/03/26 04:14:45;;;;;;;17.00;13.70;;;;;;-10131.92;;;;106060;1287;65621;-29
2022/03/26 04:17:13;;;;;;;18.90;14.30;;;;;;-10008.22;;;;106060;1287;65683;-33
2022/03/26 04:19:40;;;;;;;17.90;14.50;;;;;;-10255.62;;;;106082;1288;65707;-33
2022/03/26 04:22:08;;;;;;;19.50;13.70;;;;;;-10255.62;;;;106113;1287;65752;-33
2022/03/26 04:24:36;;;;;;;16.40;12.90;;;;;;-10131.92;;;;106103;1287;65735;-33
2022/03/26 04:27:04;;;;;;;18.10;13.50;;;;;;-10008.22;;;;105663;1288;292505;-33
2022/03/26 04:29:31;;;;;;;18.50;14.40;;;;;;-10255.62;;;;105841;1288;65690;-33
2022/03/26 04:31:59;;;;;;;16.40;13.80;;;;;;-10008.22;;;;106031;1287;65600;-33
2022/03/26 04:34:26;;;;;;;18.40;13.60;;;;;;-10255.62;;;;106074;1287;65729;-33
2022/03/26 04:36:53;;;;;;;16.30;13.90;;;;;;-10255.62;;;;106090;1286;65680;-28
2022/03/26 04:39:21;;;;;;;16.40;13.80;;;;;;-10255.62;;;;106073;1287;65739;-27
2022/03/26 04:41:48;;;;;;;15.90;12.60;;;;;;-10131.92;;;;106063;1287;65744;-28
2022/03/26 04:44:16;;;;;;;16.30;13.40;;;;;;-10255.62;;;;105805;1291;65731;-29
2022/03/26 04:46:44;;;;;;;16.50;13.20;;;;;;-10008.22;;;;105961;1288;65593;-27
2022/03/26 04:49:11;;;;;;;17.50;14.10;;;;;;-10131.92;;;;105915;1288;65577;-28
2022/03/26 04:51:38;;;;;;;15.80;13.50;;;;;;-10008.22;;;;106064;1287;65689;-33
2022/03/26 04:54:05;;;;;;;15.60;13.90;;;;;;-10131.92;;;;106069;1288;66901;-33
2022/03/26 04:56:32;;;;;;;18.00;13.90;;;;;;-10131.92;;;;106102;1287;66386;-29
2022/03/26 04:59:00;;;;;;;16.40;13.40;;;;;;-10255.62;;;;106102;1287;65600;-28
2022/03/26 05:01:27;;;;;;;17.10;13.50;;;;;;-10379.31;;;;106076;1287;65608;-28
2022/03/26 05:03:54;;;;;;;16.10;12.30;;;;;;-10131.92;;;;106073;1287;65624;-29
2022/03/26 05:06:21;;;;;;;17.50;13.20;;;;;;-10131.92;;;;106089;1287;65729;-33
2022/03/26 05:08:49;;;;;;;17.00;13.40;;;;;;-10379.31;;;;106015;1287;65623;-33
2022/03/26 05:11:16;;;;;;;17.10;12.90;;;;;;-10131.92;;;;106182;1287;65713;-33
2022/03/26 05:13:43;;;;;;;17.30;12.20;;;;;;-10255.62;;;;106083;1287;66167;-33
2022/03/26 05:16:11;;;;;;;15.90;13.00;;;;;;-10131.92;;;;106183;1287;66036;-33
2022/03/26 05:18:39;;;;;;;16.60;12.80;;;;;;-10131.92;;;;106170;1287;66293;-33
2022/03/26 05:21:07;;;;;;;15.50;12.30;;;;;;-10131.92;;;;106183;1287;65672;-28
2022/03/26 05:23:35;;;;;;;17.00;13.00;;;;;;-10131.92;;;;106193;1287;65716;-28
2022/03/26 05:26:04;;;;;;;16.50;11.90;;;;;;-10379.31;;;;106192;1287;65723;-29
2022/03/26 05:28:32;;;;;;;15.50;12.50;;;;;;-10255.62;;;;106160;1287;65578;-28
2022/03/26 05:30:59;;;;;;;16.40;13.10;;;;;;-10255.62;;;;106153;1287;65710;-28
2022/03/26 05:33:26;;;;;;;15.50;11.80;;;;;;-10131.92;;;;106160;1287;65594;-29
2022/03/26 05:35:54;;;;;;;14.50;11.50;;;;;;-10131.92;;;;105903;1288;65498;-28
2022/03/26 05:38:22;;;;;;;14.60;12.20;;;;;;-10255.62;;;;106157;1287;65747;-28
2022/03/26 05:40:49;;;;;;;16.40;13.50;;;;;;-10255.62;;;;106163;1287;65615;-28
2022/03/26 05:43:16;;;;;;;16.10;12.40;;;;;;-10255.62;;;;105923;1288;65722;-28
2022/03/26 05:45:43;;;;;;;16.20;12.10;;;;;;-10008.22;;;;105925;1288;65703;-29
2022/03/26 05:48:11;;;;;;;15.10;12.70;;;;;;-10131.92;;;;105944;1288;65740;-27
2022/03/26 05:50:38;;;;;;;14.40;11.50;;;;;;-10131.92;;;;106134;1288;65609;-27
2022/03/26 05:53:06;;;;;;;13.80;11.70;;;;;;-10255.62;;;;106154;1287;65849;-31
2022/03/26 05:55:33;;;;;;;15.60;12.60;;;;;;-10255.62;;;;105714;1287;65732;-29
2022/03/26 05:58:00;;;;;;;14.10;11.40;;;;;;-10131.92;;;;105963;1288;65774;-28
2022/03/26 06:00:28;;;;;;;15.00;11.40;;;;;;-10131.92;;;;106183;1287;65614;-29
2022/03/26 06:02:55;;;;;;;15.80;12.00;;;;;;-10008.22;;;;106029;1287;65741;-28
2022/03/26 06:05:22;;;;;;;15.50;11.70;;;;;;-10255.62;;;;106146;1287;65575;-28
2022/03/26 06:07:50;;;;;;;14.70;12.00;;;;;;-10379.31;;;;106189;1287;65814;-33
2022/03/26 06:10:18;;;;;;;13.50;11.40;;;;;;-10131.92;;;;106152;1286;66197;-33
2022/03/26 06:12:45;;;;;;;14.70;11.30;;;;;;-10131.92;;;;106181;1287;65598;-28
2022/03/26 06:15:13;;;;;;;14.80;11.10;;;;;;-10131.92;;;;106160;1287;65562;-32
2022/03/26 06:17:41;;;;;;;13.60;11.40;;;;;;-10255.62;;;;106041;1287;65607;-32
2022/03/26 06:20:09;;;;;;;13.70;10.80;;;;;;-10255.62;;;;106039;1287;66259;-33
2022/03/26 06:22:36;;;;;;;12.90;11.10;;;;;;-10131.92;;;;106165;1287;65782;-32
2022/03/26 06:25:05;;;;;;;14.20;10.80;;;;;;-10255.62;;;;106182;1287;65799;-34
2022/03/26 06:27:32;;;;;;;14.00;10.90;;;;;;-10008.22;;;;106214;1287;66680;-28
2022/03/26 06:30:00;;;;;;;12.40;9.80;;;;;;-10008.22;;;;106172;1287;65739;-28
2022/03/26 06:32:28;;;;;;;14.30;11.00;;;;;;-10255.62;;;;106148;1287;65855;-26
2022/03/26 06:34:56;;;;;;;14.20;11.00;;;;;;-10008.22;;;;106152;1287;65668;-29
2022/03/26 06:37:23;;;;;;;11.30;10.10;;;;;;-10131.92;;;;105979;1288;65605;-33
2022/03/26 06:39:51;;;;;;;13.70;10.20;;;;;;-10255.62;;;;106056;1287;65590;-29
2022/03/26 06:42:18;;;;;;;13.50;9.60;;;;;;-10131.92;;;;106161;1287;66379;-32
2022/03/26 06:44:45;;;;;;;11.50;8.80;;;;;;-10131.92;;;;106203;1287;65687;-33
2022/03/26 06:47:12;;;;;;;11.50;9.10;;;;;;-10379.31;;;;106129;1287;65585;-33
2022/03/26 06:49:41;;;;;;;11.80;9.20;;;;;;-10131.92;;;;105852;1288;65700;-33
2022/03/26 06:52:09;;;;;;;13.20;9.30;;;;;;-10255.62;;;;106157;1287;65672;-33
2022/03/26 06:54:36;;;;;;;11.30;9.00;;;;;;-10255.62;;;;106143;1287;65604;-33
2022/03/26 06:57:04;;;;;;;10.50;8.40;;;;;;-10008.22;;;;106157;1287;65695;-32
2022/03/26 06:59:32;;;;;;;11.80;8.90;;;;;;-10131.92;;;;106069;1287;65681;-34
2022/03/26 07:01:59;;;;;;;11.90;9.00;;;;;;-10008.22;;;;106166;1287;65649;-33
2022/03/26 07:04:26;;;;;;;12.30;8.60;;;;;;-10255.62;;;;106186;1287;66887;-33
2022/03/26 07:06:53;;;;;;;11.40;8.40;;;;;;-10008.22;;;;106190;1287;65600;-33
2022/03/26 07:09:20;;;;;;;12.40;8.50;;;;;;-10255.62;;;;106056;1287;65694;-34
2022/03/26 07:11:47;;;;;;;11.40;8.70;;;;;;-10131.92;;;;105921;1288;65630;-29
2022/03/26 07:14:15;;;;;;;10.70;8.20;;;;;;-10131.92;;;;106152;1287;65747;-29
2022/03/26 07:16:43;;;;;;;9.70;7.50;;;;;;-10131.92;;;;106182;1287;65872;-27
2022/03/26 07:19:11;;;;;;;11.50;8.30;;;;;;-10131.92;;;;106151;1287;65716;-29
2022/03/26 07:21:39;;;;;;;11.60;8.10;;;;;;-10255.62;;;;106076;1287;65731;-35
2022/03/26 07:24:07;;;;;;;11.30;7.60;;;;;;-10131.92;;;;106196;1287;65702;-38
2022/03/26 07:26:34;;;;;;;9.70;7.80;;;;;;-10008.22;;;;106218;1287;65606;-33
2022/03/26 07:29:01;;;;;;;9.60;7.30;;;;;;-10131.92;;;;105995;1288;66311;-33
2022/03/26 07:31:29;;;;;;;10.20;7.70;;;;;;-10131.92;;;;105921;1288;65715;-28
2022/03/26 07:33:56;;;;;;;9.60;7.40;;;;;;-10131.92;;;;105914;1287;65622;-30
2022/03/26 07:36:23;;;;;;;10.30;7.70;;;;;;-10255.62;;;;106135;1287;65748;-29
2022/03/26 07:38:51;;;;;;;9.60;7.70;;;;;;-10131.92;;;;105955;1288;65694;-29
2022/03/26 07:41:19;;;;;;;9.80;7.80;;;;;;-10379.31;;;;105803;1288;65500;-33
2022/03/26 07:43:47;;;;;;;10.00;7.30;;;;;;-10131.92;;;;105938;1288;65679;-33
2022/03/26 07:46:18;;;;;;;11.60;8.20;;;;;;-10255.62;;;;105830;1287;65707;-29
2022/03/26 07:48:46;;;;;;;10.40;7.40;;;;;;-10131.92;;;;106127;1287;65569;-26
2022/03/26 07:51:13;;;;;;;9.90;7.00;;;;;;-10255.62;;;;105833;1288;65770;-28
2022/03/26 07:53:41;;;;;;;12.30;7.30;;;;;;-10255.62;;;;106119;1287;66607;-31
2022/03/26 07:56:09;;;;;;;9.30;6.60;;;;;;-10379.31;;;;106150;1288;65717;-29
2022/03/26 07:58:36;;;;;;;9.30;6.40;;;;;;-10131.92;;;;105893;1288;65696;-28
2022/03/26 08:01:05;;;;;;;9.40;6.50;;;;;;-10131.92;;;;106154;1287;65695;-33
2022/03/26 08:03:33;;;;;;;9.70;7.10;;;;;;-10131.92;;;;106173;1287;65699;-28
2022/03/26 08:06:01;;;;;;;9.60;7.00;;;;;;-10379.31;;;;106185;1287;65703;-29
2022/03/26 08:08:29;;;;;;;9.40;6.90;;;;;;-10008.22;;;;106150;1287;65611;-29
2022/03/26 08:10:57;;;;;;;9.50;6.80;;;;;;-10255.62;;;;105968;1288;65728;-28
2022/03/26 08:13:24;;;;;;;10.70;6.40;;;;;;-10255.62;;;;106171;1287;65743;-29
2022/03/26 08:15:52;;;;;;;9.20;6.30;;;;;;-10131.92;;;;105939;1288;65568;-29
2022/03/26 08:18:19;;;;;;;9.70;7.00;;;;;;-10131.92;;;;106043;1287;66310;-29
2022/03/26 08:20:46;;;;;;;8.30;5.80;;;;;;-10008.22;;;;106135;1287;65566;-29
2022/03/26 08:23:14;;;;;;;9.00;6.30;;;;;;-10255.62;;;;105848;1287;66048;-29
2022/03/26 08:28:28;;;;;;;8.90;6.10;;;;;;-10131.92;;;;106190;1286;65712;-31
2022/03/26 08:30:56;;;;;;;8.30;5.70;;;;;;-10255.62;;;;106146;1287;65719;-39
2022/03/26 08:33:23;;;;;;;7.40;5.40;;;;;;-10255.62;;;;106183;1287;65585;-30
2022/03/26 08:35:50;;;;;;;8.70;5.80;;;;;;-10255.62;;;;105503;1288;65703;-32
2022/03/26 08:38:18;;;;;;;8.10;5.10;;;;;;-10379.31;;;;105932;1288;65768;-30
2022/03/26 08:40:45;;;;;;;8.50;5.30;;;;;;-10131.92;;;;106217;1288;66268;-29
2022/03/26 08:43:13;;;;;;;8.00;5.50;;;;;;-10255.62;;;;105859;1288;66351;-31
2022/03/26 08:45:41;;;;;;;7.10;4.80;;;;;;-10131.92;;;;106174;1286;65623;-30
2022/03/26 08:48:10;;;;;;;6.90;5.10;;;;;;-10131.92;;;;105953;1288;65610;-31
2022/03/26 08:50:37;;;;;;;8.30;5.00;;;;;;-10379.31;;;;106149;1287;65624;-30
2022/03/26 08:53:05;;;;;;;8.20;5.40;;;;;;-10008.22;;;;106059;1287;65737;-31
2022/03/26 08:55:32;;;;;;;8.50;5.70;;;;;;-10255.62;;;;106028;1287;65617;-30
2022/03/26 08:57:59;;;;;;;7.30;5.40;;;;;;-10255.62;;;;105957;1288;65571;-32
2022/03/26 09:00:27;;;;;;;9.10;5.10;;;;;;-10008.22;;;;106157;1287;65622;-32
2022/03/26 09:02:55;;;;;;;9.20;5.60;;;;;;-10379.31;;;;106146;1287;65736;-31
2022/03/26 09:05:23;;;;;;;8.30;5.80;;;;;;-10255.62;;;;105949;1288;65683;-32
2022/03/26 09:07:51;;;;;;;7.60;4.90;;;;;;-10255.62;;;;106165;1288;65732;-40
2022/03/26 09:10:18;;;;;;;7.50;5.00;;;;;;-10255.62;;;;106065;1288;65627;-32
2022/03/26 09:12:47;;;;;;;7.40;5.60;;;;;;-10008.22;;;;106184;1288;65816;-30
2022/03/26 09:15:15;;;;;;;7.20;4.90;;;;;;-10131.92;;;;106179;1288;65685;-30
2022/03/26 09:17:42;;;;;;;9.20;5.80;;;;;;-10131.92;;;;105971;1288;65787;-32
2022/03/26 09:20:10;;;;;;;9.10;5.50;;;;;;-10008.22;;;;106206;1287;66052;-31
2022/03/26 09:22:38;;;;;;;7.50;5.30;;;;;;-10255.62;;;;106059;1287;65702;-31
2022/03/26 09:25:06;;;;;;;7.30;5.20;;;;;;-10131.92;;;;105944;1288;65735;-29
2022/03/26 09:27:34;;;;;;;8.20;5.30;;;;;;-10379.31;;;;105784;1288;65712;-32
2022/03/26 09:30:02;;;;;;;8.10;5.80;;;;;;-10379.31;;;;106195;1287;65761;-31
2022/03/26 09:32:29;;;;;;;9.40;5.90;;;;;;-10255.62;;;;106187;1288;66258;-29
2022/03/26 09:34:57;;;;;;;8.00;5.90;;;;;;-10008.22;;;;106147;1287;65643;-30
2022/03/26 09:37:24;;;;;;;7.90;6.00;;;;;;-10131.92;;;;106183;1288;65837;-32
2022/03/26 09:39:51;;;;;;;7.90;6.10;;;;;;-10379.31;;;;105915;1288;65714;-30
2022/03/26 09:42:18;;;;;;;8.00;5.70;;;;;;-10008.22;;;;106204;1287;65618;-33
2022/03/26 09:44:49;;;;;;;7.00;5.10;;;;;;-10008.22;;;;106058;1288;65720;-31
2022/03/26 09:47:17;;;;;;;8.80;6.20;;;;;;-10379.31;;;;105930;1288;65860;-29
2022/03/26 09:49:44;;;;;;;10.50;6.50;;;;;;-10131.92;;;;106196;1288;65823;-30
2022/03/26 09:52:13;;;;;;;7.80;5.50;;;;;;-10131.92;;;;105940;1287;65619;-32
2022/03/26 09:54:40;;;;;;;7.70;5.70;;;;;;-10131.92;;;;106203;1287;65754;-33
2022/03/26 09:57:08;;;;;;;8.90;5.80;;;;;;-10131.92;;;;106208;1287;67399;-33
2022/03/26 09:59:36;;;;;;;7.50;5.80;;;;;;-10008.22;;;;105946;1288;65609;-33
2022/03/26 10:02:04;;;;;;;8.90;5.60;;;;;;-10255.62;;;;106190;1287;65585;-31
2022/03/26 10:04:40;;;;;;;8.70;5.20;;;;;;-10008.22;;;;105913;1288;65704;-30
2022/03/26 10:07:08;;;;;;;7.30;5.60;;;;;;-10379.31;;;;106234;1287;65584;-30
2022/03/26 10:09:44;;;;;;;6.70;5.00;;;;;;-10131.92;;;;106226;1287;65601;-30
2022/03/26 10:12:17;;;;;;;7.20;4.90;;;;;;-10131.92;;;;106067;1287;65609;-29
2022/03/26 10:14:50;;;;;;;7.50;5.30;;;;;;-10255.62;;;;106035;1287;65764;-30
2022/03/26 10:17:26;;;;;;;8.60;6.10;;;;;;-10008.22;;;;106177;1287;65627;-32
2022/03/26 10:20:04;;;;;;;8.70;5.70;;;;;;-10008.22;;;;106203;1287;65721;-31
2022/03/26 10:22:44;;;;;;;7.30;5.60;;;;;;-10131.92;;;;105874;1288;66640;-32
2022/03/26 10:25:23;;;;;;;6.30;5.00;;;;;;-10255.62;;;;106183;1287;65731;-36
2022/03/26 10:27:57;;;;;;;7.50;5.30;;;;;;-10131.92;;;;105955;1287;65818;-30
2022/03/26 10:33:24;;;;;;;7.90;5.60;;;;;;-10255.62;;;;106232;1287;65597;-28
2022/03/26 10:36:00;;;;;;;7.00;5.30;;;;;;-10131.92;;;;106248;1288;66514;-28
2022/03/26 10:38:32;;;;;;;7.70;5.30;;;;;;-10255.62;;;;106193;1288;65701;-26
2022/03/26 10:41:01;;;;;;;6.70;5.30;;;;;;-10255.62;;;;106212;1287;65620;-32
2022/03/26 10:43:29;;;;;;;7.50;5.70;;;;;;-10131.92;;;;106206;1287;65728;-31
2022/03/26 10:46:00;;;;;;;7.70;5.90;;;;;;-10008.22;;;;105883;1288;65637;-32
2022/03/26 10:48:37;;;;;;;9.10;5.60;;;;;;-10131.92;;;;106224;1287;66694;-30
2022/03/26 10:51:11;;;;;;;7.50;5.50;;;;;;-10008.22;;;;106217;1287;65744;-28
2022/03/26 10:53:49;;;;;;;7.90;5.50;;;;;;-10379.31;;;;106218;1287;65856;-36
2022/03/26 10:56:17;;;;;;;7.10;4.70;;;;;;-10131.92;;;;106217;1287;65717;-30
2022/03/26 10:58:44;;;;;;;7.30;5.20;;;;;;-10255.62;;;;106206;1287;65649;-30
2022/03/26 11:01:14;;;;;;;7.00;5.30;;;;;;-10008.22;;;;105959;1288;65633;-32
2022/03/26 11:03:42;;;;;;;7.40;5.00;;;;;;-10255.62;;;;106204;1287;65799;-30
2022/03/26 11:06:10;;;;;;;7.30;4.90;;;;;;-10131.92;;;;106211;1287;65703;-32
2022/03/26 11:08:38;;;;;;;7.00;5.00;;;;;;-10379.31;;;;106234;1287;65758;-32
2022/03/26 11:11:11;;;;;;;7.00;5.50;;;;;;-10379.31;;;;106055;1288;65664;-32
2022/03/26 11:13:49;;;;;;;6.60;4.90;;;;;;-10131.92;;;;105872;1289;65629;-32
2022/03/26 11:16:34;;;;;;;6.50;4.90;;;;;;-10379.31;;;;105934;1288;65601;-32
2022/03/26 11:19:58;;;;;;;7.50;5.00;;;;;;-10008.22;;;;105898;1287;65620;-38
2022/03/26 11:22:45;;;;;;;6.80;5.00;;;;;;-10255.62;;;;106016;1287;65587;-33
2022/03/26 11:25:26;;;;;;;7.50;4.70;;;;;;-10131.92;;;;106213;1287;65587;-42
2022/03/26 11:28:05;;;;;;;7.00;4.80;;;;;;-10131.92;;;;106030;1287;65674;-32
2022/03/26 11:30:59;;;;;;;7.20;5.50;;;;;;-10503.01;;;;106228;1287;65810;-27
2022/03/26 11:33:34;;;;;;;6.00;4.40;;;;;;-10255.62;;;;106194;1287;65716;-32
2022/03/26 11:36:08;;;;;;;6.90;4.90;;;;;;-10131.92;;;;105984;1288;65623;-28
2022/03/26 11:38:36;;;;;;;6.00;4.40;;;;;;-10131.92;;;;106070;1287;65725;-30
2022/03/26 11:41:08;;;;;;;6.20;4.60;;;;;;-10131.92;;;;105875;1288;65681;-32
2022/03/26 11:43:46;;;;;;;7.30;4.90;;;;;;-10255.62;;;;106046;1287;65643;-31
2022/03/26 11:52:20;;;;;;;7.00;4.80;;;;;;-10255.62;;;;105987;1287;65769;-31
2022/03/26 11:54:48;;;;;;;;;;;;;;-10255.62;;;;105868;1288;66426;-31
2022/03/26 11:57:19;;;;;;;6.60;4.80;;;;;;-10008.22;;;;105913;1287;65697;-30
2022/03/26 11:59:47;;;;;;;6.40;4.30;;;;;;-10503.01;;;;106226;1287;65608;-32
2022/03/26 12:02:20;;;;;;;7.40;5.00;;;;;;-10255.62;;;;106039;1287;65710;-31
2022/03/26 12:04:58;;;;;;;6.80;4.70;;;;;;-10131.92;;;;106262;1288;65617;-28
2022/03/26 12:07:29;;;;;;;7.40;4.70;;;;;;-10255.62;;;;106247;1286;66988;-29
2022/03/26 12:10:11;;;;;;;6.70;4.50;;;;;;-10131.92;;;;105804;1288;65675;-27
2022/03/26 12:12:50;;;;;;;6.80;4.80;;;;;;-10255.62;;;;105830;1288;65700;-32
2022/03/26 12:15:18;;;;;;;6.30;4.50;;;;;;-10255.62;;;;105881;1288;65682;-30
2022/03/26 12:17:48;;;;;;;5.80;4.20;;;;;;-10131.92;;;;106023;1287;65552;-30
2022/03/26 12:20:32;;;;;;;7.10;4.80;;;;;;-10008.22;;;;106082;1287;65704;-33
2022/03/26 12:23:26;;;;;;;7.10;4.50;;;;;;-10255.62;;;;106068;1287;65833;-33
2022/03/26 12:26:05;;;;;;;6.50;4.80;;;;;;-10131.92;;;;105493;1288;410326;-30
2022/03/26 12:28:38;;;;;;;5.80;4.00;;;;;;-10255.62;;;;106063;1288;65636;-32
2022/03/26 12:31:12;;;;;;;8.30;5.10;;;;;;-10131.92;;;;106069;1287;65595;-29
2022/03/26 12:33:43;;;;;;;6.10;4.60;;;;;;-10131.92;;;;106082;1287;66599;-31
2022/03/26 12:36:14;;;;;;;6.50;4.40;;;;;;-10008.22;;;;105702;1288;65728;-30
2022/03/26 12:38:47;;;;;;;7.10;4.40;;;;;;-10131.92;;;;105902;1290;64589;-30
2022/03/26 12:41:17;;;;;;;5.80;3.80;;;;;;-10255.62;;;;105879;1288;65739;-32
2022/03/26 12:43:56;;;;;;;7.40;4.30;;;;;;-10379.31;;;;106043;1287;65639;-29
2022/03/26 12:46:35;;;;;;;7.80;4.70;;;;;;-10255.62;;;;105897;1288;66430;-32
2022/03/26 12:49:08;;;;;;;7.20;4.20;;;;;;-10379.31;;;;105856;1288;65589;-29
2022/03/26 12:51:35;;;;;;;7.00;4.10;;;;;;-10255.62;;;;105876;1288;65728;-32
2022/03/26 12:54:02;;;;;;;6.00;3.60;;;;;;-10131.92;;;;105887;1288;65629;-33
2022/03/26 12:56:29;;;;;;;6.30;4.00;;;;;;-10131.92;;;;105789;1288;65838;-30